createdAt,value
2023-06-12T00:00:03.585Z,36.37
2023-06-12T00:01:03.552Z,36.20
2023-06-12T00:02:03.544Z,37.90
2023-06-12T00:03:03.677Z,42.92
2023-06-12T00:04:03.616Z,44.51
2023-06-12T00:05:03.630Z,40.61
2023-06-12T00:06:03.571Z,39.83
2023-06-12T00:07:03.565Z,40.04
2023-06-12T00:08:03.493Z,45.44
2023-06-12T00:09:03.478Z,58.47
2023-06-12T00:10:03.500Z,65.75
2023-06-12T00:11:03.481Z,72.87
2023-06-12T00:12:03.553Z,75.99
2023-06-12T00:13:03.495Z,79.00
2023-06-12T00:14:03.478Z,82.25
2023-06-12T00:15:03.497Z,83.31
2023-06-12T00:16:03.519Z,77.38
2023-06-12T00:17:03.507Z,70.73
2023-06-12T00:18:03.585Z,69.70
2023-06-12T00:19:03.499Z,77.00
2023-06-12T00:20:03.497Z,75.86
2023-06-12T00:21:03.476Z,74.64
2023-06-12T00:22:03.514Z,77.20
2023-06-12T00:23:03.443Z,82.86
2023-06-12T00:24:03.437Z,81.91
2023-06-12T00:25:03.376Z,84.18
2023-06-12T00:26:03.374Z,83.66
2023-06-12T00:27:03.390Z,86.02
2023-06-12T00:28:03.353Z,78.80
2023-06-12T00:29:03.394Z,81.11
2023-06-12T00:30:03.450Z,82.20
2023-06-12T00:31:03.503Z,84.93
2023-06-12T00:32:03.652Z,84.22
2023-06-12T00:33:03.677Z,81.42
2023-06-12T00:34:03.553Z,79.90
2023-06-12T00:35:03.626Z,79.17
2023-06-12T00:36:03.631Z,82.69
2023-06-12T00:37:03.631Z,79.04
2023-06-12T00:38:03.659Z,80.96
2023-06-12T00:39:03.677Z,79.70
2023-06-12T00:40:03.743Z,85.38
2023-06-12T00:41:03.833Z,84.47
2023-06-12T00:42:03.762Z,82.77
2023-06-12T00:43:03.812Z,83.44
2023-06-12T00:44:03.844Z,83.15
2023-06-12T00:45:03.856Z,80.32
2023-06-12T00:46:04.024Z,78.50
2023-06-12T00:47:03.925Z,80.34
2023-06-12T00:48:04.043Z,79.72
2023-06-12T00:49:03.964Z,77.65
2023-06-12T00:50:04.010Z,75.44
2023-06-12T00:51:04.030Z,80.86
2023-06-12T00:52:04.070Z,82.64
2023-06-12T00:53:04.083Z,80.61
2023-06-12T00:54:04.115Z,84.90
2023-06-12T00:55:04.121Z,77.87
2023-06-12T00:56:04.090Z,76.36
2023-06-12T00:57:04.094Z,73.73
2023-06-12T00:58:04.101Z,73.22
2023-06-12T00:59:04.110Z,69.83
2023-06-12T01:00:04.086Z,75.71
2023-06-12T01:01:04.113Z,75.35
2023-06-12T01:02:04.208Z,76.26
2023-06-12T01:03:04.302Z,77.03
2023-06-12T01:04:04.199Z,72.48
2023-06-12T01:05:04.244Z,74.24
2023-06-12T01:06:04.293Z,78.68
2023-06-12T01:07:04.305Z,75.39
2023-06-12T01:08:04.351Z,72.94
2023-06-12T01:09:04.409Z,73.29
2023-06-12T01:10:04.434Z,72.59
2023-06-12T01:11:04.478Z,72.56
2023-06-12T01:12:04.492Z,74.47
2023-06-12T01:13:04.526Z,70.21
2023-06-12T01:14:04.564Z,71.36
2023-06-12T01:15:04.615Z,70.61
2023-06-12T01:16:04.656Z,73.05
2023-06-12T01:17:04.731Z,75.00
2023-06-12T01:18:04.731Z,77.07
2023-06-12T01:19:04.764Z,77.97
2023-06-12T01:20:04.787Z,77.72
2023-06-12T01:21:04.859Z,75.34
2023-06-12T01:22:04.873Z,79.60
2023-06-12T01:23:04.918Z,80.90
2023-06-12T01:24:05.005Z,79.30
2023-06-12T01:25:04.972Z,79.40
2023-06-12T01:26:04.986Z,82.32
2023-06-12T01:27:04.967Z,78.57
2023-06-12T01:28:05.018Z,79.42
2023-06-12T01:29:05.044Z,77.83
2023-06-12T01:30:05.094Z,75.93
2023-06-12T01:31:05.141Z,78.82
2023-06-12T01:32:05.189Z,75.78
2023-06-12T01:33:05.265Z,82.57
2023-06-12T01:34:05.238Z,77.01
2023-06-12T01:35:05.308Z,79.25
2023-06-12T01:36:05.337Z,76.60
2023-06-12T01:37:05.354Z,74.74
2023-06-12T01:38:05.402Z,73.26
2023-06-12T01:39:05.456Z,75.89
2023-06-12T01:40:05.586Z,76.84
2023-06-12T01:41:05.527Z,75.89
2023-06-12T01:42:05.576Z,80.33
2023-06-12T01:43:05.605Z,78.25
2023-06-12T01:44:05.634Z,78.43
2023-06-12T01:45:05.684Z,75.86
2023-06-12T01:46:05.741Z,75.64
2023-06-12T01:47:05.786Z,76.42
2023-06-12T01:48:05.827Z,75.91
2023-06-12T01:49:05.844Z,73.83
2023-06-12T01:50:05.879Z,70.97
2023-06-12T01:51:05.904Z,78.71
2023-06-12T01:52:05.970Z,68.57
2023-06-12T01:53:06.001Z,71.00
2023-06-12T01:54:06.027Z,70.44
2023-06-12T01:55:06.031Z,68.69
2023-06-12T01:56:06.010Z,67.74
2023-06-12T01:57:06.028Z,64.36
2023-06-12T01:58:06.035Z,65.31
2023-06-12T01:59:06.063Z,69.24
2023-06-12T02:00:06.134Z,68.86
2023-06-12T02:01:06.132Z,68.13
2023-06-12T02:02:06.335Z,66.46
2023-06-12T02:03:06.253Z,65.87
2023-06-12T02:04:06.273Z,67.03
2023-06-12T02:05:06.300Z,67.57
2023-06-12T02:06:06.369Z,66.54
2023-06-12T02:07:06.408Z,66.27
2023-06-12T02:08:06.462Z,68.05
2023-06-12T02:09:06.496Z,62.95
2023-06-12T02:10:06.549Z,64.84
2023-06-12T02:11:06.591Z,67.85
2023-06-12T02:12:06.640Z,60.64
2023-06-12T02:13:06.692Z,60.86
2023-06-12T02:14:06.728Z,64.64
2023-06-12T02:15:06.789Z,63.72
2023-06-12T02:16:06.843Z,63.21
2023-06-12T02:17:06.960Z,64.46
2023-06-12T02:18:06.946Z,65.48
2023-06-12T02:19:06.985Z,64.89
2023-06-12T02:20:07.020Z,70.23
2023-06-12T02:21:07.088Z,65.81
2023-06-12T02:22:07.132Z,67.05
2023-06-12T02:23:07.184Z,70.47
2023-06-12T02:24:07.280Z,71.57
2023-06-12T02:25:07.246Z,66.15
2023-06-12T02:26:07.314Z,68.71
2023-06-12T02:27:07.342Z,65.73
2023-06-12T02:28:07.402Z,63.00
2023-06-12T02:29:07.442Z,61.86
2023-06-12T02:30:07.503Z,58.74
2023-06-12T02:31:07.528Z,50.87
2023-06-12T02:32:07.602Z,50.93
2023-06-12T02:33:07.653Z,55.35
2023-06-12T02:34:07.661Z,52.99
2023-06-12T02:35:07.704Z,54.76
2023-06-12T02:36:07.768Z,55.96
2023-06-12T02:37:09.582Z,53.32
2023-06-12T02:38:07.802Z,53.35
2023-06-12T02:39:07.769Z,53.70
2023-06-12T02:40:07.777Z,54.79
2023-06-12T02:41:07.769Z,52.28
2023-06-12T02:42:07.761Z,55.93
2023-06-12T02:43:07.759Z,58.96
2023-06-12T02:44:07.747Z,59.32
2023-06-12T02:45:07.743Z,59.63
2023-06-12T02:46:07.752Z,63.54
2023-06-12T02:47:07.713Z,60.46
2023-06-12T02:48:07.797Z,57.85
2023-06-12T02:49:07.719Z,58.27
2023-06-12T02:50:07.697Z,54.84
2023-06-12T02:51:07.691Z,52.93
2023-06-12T02:52:07.695Z,56.21
2023-06-12T02:53:07.695Z,58.57
2023-06-12T02:54:07.728Z,60.31
2023-06-12T02:55:07.676Z,59.03
2023-06-12T02:56:07.658Z,63.66
2023-06-12T02:57:07.715Z,65.33
2023-06-12T02:58:07.659Z,67.32
2023-06-12T02:59:09.036Z,66.83
2023-06-12T03:00:07.644Z,68.80
2023-06-12T03:01:07.630Z,69.50
2023-06-12T03:02:07.658Z,69.49
2023-06-12T03:03:07.730Z,69.66
2023-06-12T03:04:07.657Z,67.76
2023-06-12T03:05:07.638Z,63.35
2023-06-12T03:06:07.640Z,64.81
2023-06-12T03:07:07.604Z,67.84
2023-06-12T03:08:07.603Z,67.93
2023-06-12T03:09:07.597Z,68.60
2023-06-12T03:10:07.610Z,71.03
2023-06-12T03:11:07.618Z,66.81
2023-06-12T03:12:07.651Z,68.17
2023-06-12T03:13:07.717Z,65.48
2023-06-12T03:14:07.751Z,66.22
2023-06-12T03:15:07.802Z,64.93
2023-06-12T03:16:07.952Z,64.27
2023-06-12T03:17:07.920Z,64.90
2023-06-12T03:18:08.065Z,63.84
2023-06-12T03:19:08.012Z,64.86
2023-06-12T03:20:08.097Z,68.80
2023-06-12T03:21:08.146Z,69.25
2023-06-12T03:22:08.162Z,69.16
2023-06-12T03:23:08.234Z,68.03
2023-06-12T03:24:08.308Z,66.29
2023-06-12T03:25:08.322Z,67.62
2023-06-12T03:26:08.358Z,66.49
2023-06-12T03:27:08.422Z,65.04
2023-06-12T03:28:08.494Z,66.38
2023-06-12T03:29:08.534Z,69.29
2023-06-12T03:30:08.571Z,67.07
2023-06-12T03:31:08.721Z,67.04
2023-06-12T03:32:08.676Z,69.24
2023-06-12T03:33:08.783Z,73.37
2023-06-12T03:34:08.788Z,78.77
2023-06-12T03:35:08.832Z,82.83
2023-06-12T03:36:08.876Z,90.24
2023-06-12T03:37:08.954Z,93.01
2023-06-12T03:38:08.983Z,97.86
2023-06-12T03:39:09.030Z,97.80
2023-06-12T03:40:09.144Z,100.46
2023-06-12T03:41:09.163Z,102.79
2023-06-12T03:42:09.210Z,107.21
2023-06-12T03:43:09.256Z,109.77
2023-06-12T03:44:09.303Z,110.07
2023-06-12T03:45:09.365Z,109.97
2023-06-12T03:46:09.435Z,111.69
2023-06-12T03:47:09.555Z,113.86
2023-06-12T03:48:09.542Z,113.15
2023-06-12T03:49:09.606Z,114.65
2023-06-12T03:50:09.843Z,110.32
2023-06-12T03:51:09.682Z,111.43
2023-06-12T03:52:09.740Z,114.75
2023-06-12T03:53:09.822Z,115.83
2023-06-12T03:54:09.840Z,117.06
2023-06-12T03:55:09.929Z,118.15
2023-06-12T03:56:09.962Z,115.05
2023-06-12T03:57:10.027Z,115.66
2023-06-12T03:58:10.061Z,114.05
2023-06-12T03:59:10.137Z,113.54
2023-06-12T04:00:10.212Z,111.85
2023-06-12T04:01:10.127Z,113.77
2023-06-12T04:02:10.191Z,116.03
2023-06-12T04:03:10.318Z,117.10
2023-06-12T04:04:10.246Z,120.25
2023-06-12T04:05:10.198Z,126.86
2023-06-12T04:06:10.215Z,128.19
2023-06-12T04:07:10.214Z,132.51
2023-06-12T04:08:10.244Z,133.27
2023-06-12T04:09:10.256Z,136.72
2023-06-12T04:10:10.908Z,137.51
2023-06-12T04:11:10.365Z,137.83
2023-06-12T04:12:10.428Z,140.44
2023-06-12T04:13:10.494Z,140.87
2023-06-12T04:14:10.583Z,140.26
2023-06-12T04:15:10.570Z,143.84
2023-06-12T04:16:10.692Z,145.94
2023-06-12T04:17:10.679Z,143.51
2023-06-12T04:18:10.831Z,144.44
2023-06-12T04:19:10.799Z,144.67
2023-06-12T04:20:11.252Z,146.54
2023-06-12T04:21:10.904Z,146.19
2023-06-12T04:22:10.936Z,144.85
2023-06-12T04:23:10.962Z,142.52
2023-06-12T04:24:11.010Z,140.24
2023-06-12T04:25:10.978Z,140.26
2023-06-12T04:26:10.985Z,142.92
2023-06-12T04:27:11.008Z,144.82
2023-06-12T04:28:11.011Z,146.32
2023-06-12T04:29:11.034Z,151.13
2023-06-12T04:30:11.554Z,151.36
2023-06-12T04:31:11.118Z,151.34
2023-06-12T04:32:11.168Z,148.78
2023-06-12T04:33:11.263Z,148.93
2023-06-12T04:34:11.274Z,149.35
2023-06-12T04:35:11.273Z,148.56
2023-06-12T04:36:11.333Z,149.36
2023-06-12T04:37:11.388Z,147.55
2023-06-12T04:38:11.437Z,143.96
2023-06-12T04:39:11.465Z,145.61
2023-06-12T04:40:11.872Z,140.76
2023-06-12T04:41:11.558Z,138.16
2023-06-12T04:42:11.645Z,137.10
2023-06-12T04:43:11.673Z,133.27
2023-06-12T04:44:11.720Z,135.46
2023-06-12T04:45:11.768Z,134.70
2023-06-12T04:46:11.796Z,134.65
2023-06-12T04:47:11.840Z,136.35
2023-06-12T04:48:11.985Z,140.11
2023-06-12T04:49:12.008Z,139.93
2023-06-12T04:50:12.221Z,141.19
2023-06-12T04:51:12.013Z,141.32
2023-06-12T04:52:12.050Z,139.95
2023-06-12T04:53:12.106Z,141.46
2023-06-12T04:54:12.142Z,141.03
2023-06-12T04:55:12.181Z,141.80
2023-06-12T04:56:12.200Z,143.12
2023-06-12T04:57:12.250Z,146.81
2023-06-12T04:58:12.273Z,147.62
2023-06-12T04:59:12.318Z,147.13
2023-06-12T05:00:12.676Z,148.08
2023-06-12T05:01:12.497Z,150.40
2023-06-12T05:02:12.423Z,146.62
2023-06-12T05:03:12.530Z,148.91
2023-06-12T05:04:12.500Z,152.55
2023-06-12T05:05:12.439Z,166.88
2023-06-12T05:06:12.477Z,181.09
2023-06-12T05:07:12.495Z,191.15
2023-06-12T05:08:12.534Z,199.28
2023-06-12T05:09:12.554Z,203.64
2023-06-12T05:10:12.758Z,206.35
2023-06-12T05:11:12.604Z,210.64
2023-06-12T05:12:12.626Z,220.79
2023-06-12T05:13:12.642Z,226.06
2023-06-12T05:14:12.656Z,233.79
2023-06-12T05:15:12.698Z,242.48
2023-06-12T05:16:12.816Z,249.21
2023-06-12T05:17:12.756Z,242.99
2023-06-12T05:18:12.811Z,239.47
2023-06-12T05:19:12.772Z,239.87
2023-06-12T05:20:13.012Z,235.98
2023-06-12T05:21:12.790Z,236.71
2023-06-12T05:22:12.806Z,234.00
2023-06-12T05:23:12.828Z,234.96
2023-06-12T05:24:12.885Z,228.77
2023-06-12T05:25:12.872Z,205.81
2023-06-12T05:26:12.898Z,156.82
2023-06-12T05:27:12.952Z,130.61
2023-06-12T05:28:12.956Z,122.72
2023-06-12T05:29:12.938Z,109.34
2023-06-12T05:30:13.171Z,93.16
2023-06-12T05:31:13.081Z,88.33
2023-06-12T05:32:13.086Z,72.50
2023-06-12T05:33:13.165Z,58.16
2023-06-12T05:34:13.159Z,50.28
2023-06-12T05:35:13.213Z,46.63
2023-06-12T05:36:13.281Z,56.50
2023-06-12T05:37:13.312Z,69.33
2023-06-12T05:38:13.722Z,93.09
2023-06-12T05:39:14.847Z,114.84
2023-06-12T05:40:13.564Z,137.12
2023-06-12T05:41:13.444Z,157.30
2023-06-12T05:42:13.466Z,178.07
2023-06-12T05:43:13.743Z,196.26
2023-06-12T05:44:13.560Z,218.87
2023-06-12T05:45:13.587Z,240.21
2023-06-12T05:46:13.605Z,251.88
2023-06-12T05:47:13.605Z,250.63
2023-06-12T05:48:13.708Z,250.00
2023-06-12T05:49:13.680Z,251.34
2023-06-12T05:50:13.929Z,250.88
2023-06-12T05:51:13.791Z,250.01
2023-06-12T05:52:13.853Z,250.00
2023-06-12T05:53:14.236Z,250.00
2023-06-12T05:54:13.919Z,248.55
2023-06-12T05:55:14.169Z,249.09
2023-06-12T05:56:14.029Z,249.23
2023-06-12T05:57:13.985Z,250.00
2023-06-12T05:58:14.024Z,248.55
2023-06-12T05:59:14.032Z,249.19
2023-06-12T06:00:14.328Z,249.81
2023-06-12T06:01:14.029Z,248.95
2023-06-12T06:02:14.028Z,249.38
2023-06-12T06:03:14.185Z,247.59
2023-06-12T06:04:14.114Z,249.66
2023-06-12T06:05:14.365Z,238.49
2023-06-12T06:06:14.048Z,245.89
2023-06-12T06:07:18.492Z,250.00
2023-06-12T06:08:15.094Z,250.14
2023-06-12T06:09:14.059Z,250.93
2023-06-12T06:10:14.042Z,252.10
2023-06-12T06:11:14.057Z,255.38
2023-06-12T06:12:14.038Z,259.78
2023-06-12T06:13:14.036Z,250.28
2023-06-12T06:14:14.012Z,250.00
2023-06-12T06:15:14.223Z,249.22
2023-06-12T06:16:14.148Z,249.34
2023-06-12T06:17:14.141Z,248.72
2023-06-12T06:18:14.285Z,245.64
2023-06-12T06:19:14.229Z,247.09
2023-06-12T06:20:14.291Z,247.06
2023-06-12T06:21:14.358Z,245.92
2023-06-12T06:22:14.389Z,238.45
2023-06-12T06:23:14.493Z,243.39
2023-06-12T06:24:14.659Z,245.87
2023-06-12T06:25:14.891Z,245.15
2023-06-12T06:26:14.579Z,241.15
2023-06-12T06:27:14.629Z,240.17
2023-06-12T06:28:14.658Z,239.30
2023-06-12T06:29:15.406Z,241.00
2023-06-12T06:30:14.730Z,242.04
2023-06-12T06:31:14.865Z,239.70
2023-06-12T06:32:14.965Z,229.33
2023-06-12T06:33:14.881Z,208.29
2023-06-12T06:34:14.911Z,189.10
2023-06-12T06:35:15.149Z,161.78
2023-06-12T06:36:15.012Z,144.00
2023-06-12T06:37:15.111Z,132.41
2023-06-12T06:38:15.235Z,129.89
2023-06-12T06:39:15.212Z,112.66
2023-06-12T06:40:15.276Z,105.01
2023-06-12T06:41:15.300Z,99.88
2023-06-12T06:42:15.354Z,85.61
2023-06-12T06:43:15.418Z,90.57
2023-06-12T06:44:15.472Z,86.61
2023-06-12T06:45:15.666Z,79.36
2023-06-12T06:46:15.590Z,74.17
2023-06-12T06:47:15.617Z,65.39
2023-06-12T06:48:15.712Z,69.22
2023-06-12T06:49:15.735Z,69.92
2023-06-12T06:50:15.790Z,79.01
2023-06-12T06:51:15.845Z,72.34
2023-06-12T06:52:15.924Z,62.43
2023-06-12T06:53:15.984Z,59.47
2023-06-12T06:54:16.039Z,69.97
2023-06-12T06:55:16.117Z,53.28
2023-06-12T06:56:16.182Z,79.85
2023-06-12T06:57:16.241Z,97.74
2023-06-12T06:58:16.276Z,108.70
2023-06-12T06:59:16.335Z,121.36
2023-06-12T07:00:16.375Z,127.70
2023-06-12T07:01:16.422Z,134.85
2023-06-12T07:02:16.443Z,142.28
2023-06-12T07:03:16.577Z,147.09
2023-06-12T07:04:16.521Z,152.68
2023-06-12T07:05:16.541Z,154.92
2023-06-12T07:06:16.545Z,163.16
2023-06-12T07:07:16.576Z,171.52
2023-06-12T07:08:16.832Z,177.64
2023-06-12T07:09:16.618Z,181.36
2023-06-12T07:10:16.629Z,189.99
2023-06-12T07:11:16.636Z,199.17
2023-06-12T07:12:16.665Z,213.68
2023-06-12T07:13:16.698Z,224.03
2023-06-12T07:14:16.696Z,214.92
2023-06-12T07:15:16.717Z,212.22
2023-06-12T07:16:16.759Z,200.18
2023-06-12T07:17:16.781Z,213.19
2023-06-12T07:18:16.769Z,217.54
2023-06-12T07:19:16.803Z,217.36
2023-06-12T07:20:16.798Z,214.00
2023-06-12T07:21:16.844Z,215.34
2023-06-12T07:22:16.815Z,214.49
2023-06-12T07:23:16.825Z,212.80
2023-06-12T07:24:17.001Z,208.73
2023-06-12T07:25:16.848Z,211.37
2023-06-12T07:27:16.848Z,215.73
2023-06-12T07:28:16.839Z,228.06
2023-06-12T07:29:17.286Z,188.33
2023-06-12T07:30:16.847Z,137.26
2023-06-12T07:31:16.897Z,125.17
2023-06-12T07:32:16.822Z,113.94
2023-06-12T07:33:16.834Z,107.66
2023-06-12T07:34:17.273Z,97.85
2023-06-12T07:35:16.875Z,103.80
2023-06-12T07:36:16.787Z,110.17
2023-06-12T07:37:16.811Z,73.99
2023-06-12T07:38:16.802Z,72.08
2023-06-12T07:39:16.820Z,68.82
2023-06-12T07:40:16.781Z,44.98
2023-06-12T07:41:16.756Z,29.33
2023-06-12T07:42:16.749Z,49.10
2023-06-12T07:43:16.758Z,50.93
2023-06-12T07:44:16.761Z,75.64
2023-06-12T07:45:17.107Z,71.98
2023-06-12T07:46:16.748Z,55.06
2023-06-12T07:47:16.738Z,71.24
2023-06-12T07:48:16.817Z,68.99
2023-06-12T07:49:16.719Z,21.48
2023-06-12T07:50:16.764Z,19.15
2023-06-12T07:51:16.708Z,3.03
2023-06-12T07:52:16.690Z,10.29
2023-06-12T07:53:32.463Z,22.72
2023-06-12T07:54:17.681Z,22.79
2023-06-12T07:55:16.674Z,19.07
2023-06-12T07:56:16.689Z,24.91
2023-06-12T07:57:16.670Z,31.89
2023-06-12T07:58:16.654Z,26.34
2023-06-12T07:59:16.656Z,25.65
2023-06-12T08:00:16.665Z,31.52
2023-06-12T08:01:16.628Z,53.08
2023-06-12T08:02:16.708Z,61.78
2023-06-12T08:03:30.318Z,61.83
2023-06-12T08:04:17.652Z,61.90
2023-06-12T08:05:16.818Z,55.02
2023-06-12T08:06:16.808Z,59.91
2023-06-12T08:07:16.600Z,51.48
2023-06-12T08:08:16.793Z,38.09
2023-06-12T08:09:16.607Z,17.64
2023-06-12T08:10:16.584Z,34.62
2023-06-12T08:11:16.620Z,46.70
2023-06-12T08:12:16.583Z,51.11
2023-06-12T08:13:16.578Z,55.17
2023-06-12T08:14:16.562Z,56.47
2023-06-12T08:15:16.554Z,56.55
2023-06-12T08:16:16.609Z,61.32
2023-06-12T08:17:16.653Z,50.90
2023-06-12T08:18:16.556Z,34.64
2023-06-12T08:19:16.523Z,36.32
2023-06-12T08:20:16.529Z,26.13
2023-06-12T08:23:29.074Z,25.00
2023-06-12T08:24:29.044Z,25.00
2023-06-12T08:25:29.133Z,25.00
2023-06-12T08:26:29.255Z,25.00
2023-06-12T08:27:29.201Z,25.00
2023-06-12T08:28:29.573Z,25.00
2023-06-12T08:29:29.258Z,13.41
2023-06-12T08:30:29.250Z,41.68
2023-06-12T08:31:29.519Z,38.26
2023-06-12T08:32:29.386Z,27.35
2023-06-12T08:33:29.585Z,22.30
2023-06-12T08:34:29.282Z,25.00
2023-06-12T08:35:29.294Z,34.36
2023-06-12T08:36:29.311Z,20.78
2023-06-12T08:37:29.311Z,24.35
2023-06-12T08:38:32.196Z,25.00
2023-06-12T08:39:29.353Z,68.34
2023-06-12T08:40:29.402Z,143.19
2023-06-12T08:41:29.316Z,144.87
2023-06-12T08:42:29.312Z,111.91
2023-06-12T08:43:29.419Z,97.34
2023-06-12T08:44:29.297Z,106.94
2023-06-12T08:45:29.594Z,141.78
2023-06-12T08:46:29.343Z,185.45
2023-06-12T08:47:29.337Z,218.53
2023-06-12T08:48:29.287Z,252.68
2023-06-12T08:49:29.289Z,246.18
2023-06-12T08:50:29.255Z,224.10
2023-06-12T08:51:29.251Z,199.76
2023-06-12T08:52:29.265Z,197.04
2023-06-12T08:53:29.587Z,202.50
2023-06-12T08:54:29.236Z,190.66
2023-06-12T08:55:29.249Z,113.36
2023-06-12T08:56:29.258Z,96.60
2023-06-12T08:57:29.205Z,82.16
2023-06-12T08:58:29.588Z,93.82
2023-06-12T08:59:29.202Z,93.83
2023-06-12T09:00:29.191Z,107.18
2023-06-12T09:01:29.263Z,110.82
2023-06-12T09:02:29.319Z,138.26
2023-06-12T09:03:29.263Z,155.49
2023-06-12T09:04:29.219Z,150.81
2023-06-12T09:05:29.181Z,112.75
2023-06-12T09:06:29.156Z,90.54
2023-06-12T09:07:29.164Z,105.55
2023-06-12T09:08:29.583Z,132.87
2023-06-12T09:09:29.156Z,99.72
2023-06-12T09:10:29.146Z,98.81
2023-06-12T09:11:29.124Z,90.69
2023-06-12T09:12:29.130Z,47.37
2023-06-12T09:13:29.599Z,19.63
2023-06-12T09:14:29.124Z,28.17
2023-06-12T09:15:29.123Z,28.92
2023-06-12T09:16:29.150Z,62.55
2023-06-12T09:17:29.135Z,85.20
2023-06-12T09:18:29.757Z,76.18
2023-06-12T09:19:29.080Z,66.57
2023-06-12T09:21:29.051Z,105.52
2023-06-12T09:22:29.049Z,84.00
2023-06-12T09:23:29.105Z,88.01
2023-06-12T09:24:29.130Z,102.26
2023-06-12T09:25:29.039Z,108.93
2023-06-12T09:26:29.021Z,113.32
2023-06-12T09:27:29.008Z,119.86
2023-06-12T09:28:29.009Z,109.70
2023-06-12T09:29:29.092Z,26.50
2023-06-12T09:30:29.010Z,6.56
2023-06-12T09:31:29.013Z,0.00
2023-06-12T09:32:29.065Z,0.00
2023-06-12T09:33:29.089Z,12.40
2023-06-12T09:34:29.083Z,18.23
2023-06-12T09:35:28.967Z,25.78
2023-06-12T09:36:28.953Z,21.40
2023-06-12T09:37:28.965Z,27.27
2023-06-12T09:38:29.101Z,26.29
2023-06-12T09:39:28.956Z,26.79
2023-06-12T09:40:28.950Z,42.15
2023-06-12T09:41:28.941Z,75.17
2023-06-12T09:42:28.934Z,108.64
2023-06-12T09:43:28.927Z,115.13
2023-06-12T09:44:28.891Z,108.84
2023-06-12T09:45:28.895Z,105.06
2023-06-12T09:46:28.909Z,112.04
2023-06-12T09:47:28.921Z,140.06
2023-06-12T09:48:28.877Z,154.83
2023-06-12T09:49:28.890Z,173.83
2023-06-12T09:50:28.859Z,190.81
2023-06-12T09:51:28.876Z,217.96
2023-06-12T09:52:28.852Z,231.14
2023-06-12T09:53:29.264Z,247.72
2023-06-12T09:54:28.848Z,218.90
2023-06-12T09:55:28.838Z,191.00
2023-06-12T09:56:28.857Z,182.71
2023-06-12T09:57:28.851Z,182.73
2023-06-12T09:58:28.841Z,172.00
2023-06-12T09:59:28.816Z,168.27
2023-06-12T10:00:28.799Z,163.56
2023-06-12T10:01:28.970Z,169.70
2023-06-12T10:02:28.838Z,158.65
2023-06-12T10:03:29.662Z,173.53
2023-06-12T10:04:28.795Z,187.16
2023-06-12T10:05:28.763Z,179.41
2023-06-12T10:06:28.779Z,177.76
2023-06-12T10:07:28.776Z,163.01
2023-06-12T10:08:29.111Z,132.55
2023-06-12T10:09:28.850Z,120.47
2023-06-12T10:10:28.903Z,126.41
2023-06-12T10:11:28.955Z,105.34
2023-06-12T10:12:29.006Z,87.61
2023-06-12T10:13:29.034Z,86.52
2023-06-12T10:14:29.125Z,65.68
2023-06-12T10:15:29.139Z,68.84
2023-06-12T10:16:29.208Z,91.12
2023-06-12T10:17:31.377Z,116.60
2023-06-12T10:18:29.237Z,127.73
2023-06-12T10:19:29.227Z,149.62
2023-06-12T10:20:29.214Z,168.05
2023-06-12T10:21:29.207Z,185.16
2023-06-12T10:22:29.213Z,198.71
2023-06-12T10:23:30.051Z,220.46
2023-06-12T10:24:29.718Z,221.13
2023-06-12T10:25:29.185Z,226.59
2023-06-12T10:26:29.184Z,241.22
2023-06-12T10:27:29.177Z,272.13
2023-06-12T10:28:29.184Z,314.16
2023-06-12T10:29:31.862Z,293.75
2023-06-12T10:30:29.162Z,252.32
2023-06-12T10:31:29.211Z,253.13
2023-06-12T10:32:29.162Z,266.97
2023-06-12T10:33:29.632Z,269.61
2023-06-12T10:34:29.138Z,276.76
2023-06-12T10:35:29.138Z,271.17
2023-06-12T10:36:31.161Z,262.27
2023-06-12T10:37:29.123Z,257.67
2023-06-12T10:38:29.610Z,254.57
2023-06-12T10:39:29.142Z,250.16
2023-06-12T10:40:46.870Z,251.16
2023-06-12T10:41:30.100Z,251.39
2023-06-12T10:42:29.595Z,252.05
2023-06-12T10:43:29.088Z,252.68
2023-06-12T10:44:29.120Z,255.25
2023-06-12T10:45:29.090Z,259.76
2023-06-12T10:46:29.189Z,252.61
2023-06-12T10:47:29.100Z,249.51
2023-06-12T10:48:29.087Z,242.71
2023-06-12T10:49:29.056Z,237.82
2023-06-12T10:50:29.104Z,239.04
2023-06-12T10:51:29.041Z,235.20
2023-06-12T10:52:29.072Z,246.34
2023-06-12T10:53:29.071Z,249.68
2023-06-12T10:54:29.059Z,249.91
2023-06-12T10:55:29.053Z,250.03
2023-06-12T10:56:29.073Z,249.92
2023-06-12T10:57:29.054Z,246.74
2023-06-12T10:58:29.137Z,243.45
2023-06-12T10:59:29.071Z,238.17
2023-06-12T11:00:29.028Z,233.81
2023-06-12T11:01:29.125Z,242.15
2023-06-12T11:02:29.230Z,249.92
2023-06-12T11:03:29.275Z,249.70
2023-06-12T11:04:29.320Z,249.68
2023-06-12T11:05:29.268Z,248.02
2023-06-12T11:06:29.177Z,248.35
2023-06-12T11:07:29.658Z,248.49
2023-06-12T11:08:29.687Z,250.00
2023-06-12T11:09:29.293Z,249.47
2023-06-12T11:10:29.315Z,249.52
2023-06-12T11:11:29.333Z,245.27
2023-06-12T11:12:38.276Z,231.26
2023-06-12T11:13:30.662Z,193.73
2023-06-12T11:14:29.408Z,187.25
2023-06-12T11:15:29.407Z,196.27
2023-06-12T11:16:29.416Z,198.25
2023-06-12T11:17:29.403Z,201.96
2023-06-12T11:18:30.168Z,204.15
2023-06-12T11:19:29.349Z,208.57
2023-06-12T11:20:31.106Z,214.95
2023-06-12T11:21:29.502Z,218.31
2023-06-12T11:22:29.591Z,221.86
2023-06-12T11:23:29.623Z,224.57
2023-06-12T11:24:29.734Z,223.72
2023-06-12T11:25:29.796Z,201.49
2023-06-12T11:26:29.736Z,173.22
2023-06-12T11:27:29.813Z,172.82
2023-06-12T11:28:29.850Z,172.52
2023-06-12T11:29:29.901Z,147.72
2023-06-12T11:31:30.020Z,145.76
2023-06-12T11:32:30.115Z,170.82
2023-06-12T11:33:30.153Z,188.74
2023-06-12T11:34:30.278Z,201.13
2023-06-12T11:35:30.234Z,207.81
2023-06-12T11:36:30.450Z,214.41
2023-06-12T11:37:30.711Z,223.64
2023-06-12T11:40:30.387Z,250.71
2023-06-12T11:41:30.413Z,252.07
2023-06-12T11:42:30.382Z,254.58
2023-06-12T11:43:30.375Z,260.37
2023-06-12T11:44:30.383Z,268.54
2023-06-12T11:45:30.354Z,265.64
2023-06-12T11:46:30.366Z,261.96
2023-06-12T11:49:30.489Z,257.74
2023-06-12T11:50:30.359Z,259.12
2023-06-12T11:51:30.951Z,262.17
2023-06-12T11:52:30.324Z,267.90
2023-06-12T11:53:30.316Z,278.26
2023-06-12T11:57:30.291Z,272.63
2023-06-12T11:58:30.276Z,273.51
2023-06-12T11:59:30.290Z,274.33
2023-06-12T12:00:30.279Z,275.31
2023-06-12T12:01:30.258Z,277.71
2023-06-12T12:02:30.380Z,270.15
2023-06-12T12:03:30.247Z,264.66
2023-06-12T12:04:30.296Z,256.98
2023-06-12T12:05:30.231Z,249.65
2023-06-12T12:06:30.236Z,248.22
2023-06-12T12:07:30.237Z,248.74
2023-06-12T12:08:30.236Z,248.00
2023-06-12T12:09:30.214Z,248.14
2023-06-12T12:10:30.219Z,246.61
2023-06-12T12:11:30.221Z,248.91
2023-06-12T12:12:30.192Z,248.85
2023-06-12T12:13:30.205Z,249.38
2023-06-12T12:14:30.200Z,247.23
2023-06-12T12:15:30.259Z,245.29
2023-06-12T12:16:30.610Z,244.49
2023-06-12T12:17:30.267Z,245.26
2023-06-12T12:18:30.164Z,246.67
2023-06-12T12:19:30.174Z,246.15
2023-06-12T12:20:30.140Z,243.83
2023-06-12T12:21:30.144Z,244.46
2023-06-12T12:22:30.136Z,245.79
2023-06-12T12:23:30.163Z,243.75
2023-06-12T12:24:30.204Z,244.80
2023-06-12T12:25:30.135Z,244.49
2023-06-12T12:26:30.126Z,246.18
2023-06-12T12:27:30.125Z,247.83
2023-06-12T12:28:30.106Z,246.22
2023-06-12T12:29:30.099Z,246.91
2023-06-12T12:30:30.125Z,244.27
2023-06-12T12:31:30.149Z,244.56
2023-06-12T12:32:30.088Z,244.23
2023-06-12T12:33:30.065Z,243.10
2023-06-12T12:34:30.157Z,242.33
2023-06-12T12:35:30.068Z,243.74
2023-06-12T12:36:30.085Z,244.83
2023-06-12T12:37:30.069Z,243.57
2023-06-12T12:38:30.094Z,245.52
2023-06-12T12:39:30.173Z,244.58
2023-06-12T12:40:30.209Z,242.58
2023-06-12T12:41:30.023Z,244.10
2023-06-12T12:42:30.029Z,244.46
2023-06-12T12:43:30.055Z,245.70
2023-06-12T12:44:30.022Z,245.36
2023-06-12T12:45:30.042Z,243.02
2023-06-12T12:46:30.023Z,244.24
2023-06-12T12:47:30.088Z,244.97
2023-06-12T12:48:30.096Z,244.57
2023-06-12T12:49:29.996Z,244.79
2023-06-12T12:50:33.089Z,242.62
2023-06-12T12:51:29.982Z,242.75